Time;durP1;ratioP1;P1;durP2;ratioP2;P2;SDS_P1;SDS_P2;PMS_P1;PMS_P2;Temp;Humidity;BMP_temperature;BMP_pressure;BME280_temperature;BME280_humidity;BME280_pressure;Samples;Min_cycle;Max_cycle;Signal;HPM_P1;HPM_P2
2021/12/25 00:00:07;;;;;;;418.40;129.68;;;;;;;-0.27;81.23;99434.88;341132;28;1248;-70
2021/12/25 00:00:18;;;;;;;415.13;127.32;;;;;;;-0.26;81.84;99437.47;340838;28;1499;-70
2021/12/25 00:00:28;;;;;;;412.95;126.93;;;;;;;-0.26;81.95;99441.75;341013;29;2107;-70
2021/12/25 00:00:39;;;;;;;413.58;126.60;;;;;;;-0.26;81.48;99436.59;342467;28;960;-70
2021/12/25 00:00:50;;;;;;;416.33;128.53;;;;;;;-0.28;81.34;99438.31;340998;28;2137;-70
2021/12/25 00:01:02;;;;;;;414.52;128.57;;;;;;;-0.26;82.12;99439.16;342482;28;1083;-70
2021/12/25 00:01:13;;;;;;;415.10;128.02;;;;;;;-0.27;82.11;99437.47;341090;29;1732;-70
2021/12/25 00:01:24;;;;;;;418.80;126.93;;;;;;;-0.28;81.58;99443.47;338532;29;1343;-70
2021/12/25 00:01:35;;;;;;;415.88;126.28;;;;;;;-0.28;82.22;99443.47;341188;29;1406;-70
2021/12/25 00:01:47;;;;;;;414.38;126.40;;;;;;;-0.29;81.68;99447.75;339849;29;869;-70
2021/12/25 00:02:01;;;;;;;414.10;126.25;;;;;;;-0.31;82.21;99443.44;341211;28;1310;-70
2021/12/25 00:02:11;;;;;;;417.50;129.77;;;;;;;-0.34;81.57;99441.75;342491;28;849;-70
2021/12/25 00:02:22;;;;;;;420.60;131.00;;;;;;;-0.33;82.25;99451.16;340980;29;1123;-70
2021/12/25 00:02:34;;;;;;;419.27;130.07;;;;;;;-0.34;82.20;99440.03;341103;28;1348;-69
2021/12/25 00:02:44;;;;;;;417.25;128.05;;;;;;;-0.33;81.60;99446.03;339351;29;1638;-69
2021/12/25 00:02:55;;;;;;;415.20;127.73;;;;;;;-0.32;82.24;99446.88;341220;28;1467;-69
2021/12/25 00:03:05;;;;;;;419.27;128.02;;;;;;;-0.32;81.81;99449.44;341041;28;2649;-69
2021/12/25 00:03:16;;;;;;;420.50;126.63;;;;;;;-0.33;82.26;99446.03;343160;28;1145;-69
2021/12/25 00:03:26;;;;;;;418.73;125.50;;;;;;;-0.35;82.08;99448.59;344456;28;1206;-70
2021/12/25 00:03:37;;;;;;;417.30;126.30;;;;;;;-0.33;81.64;99446.03;341744;28;1918;-70
2021/12/25 00:03:48;;;;;;;416.35;126.57;;;;;;;-0.34;82.00;99445.16;339644;29;2355;-70
2021/12/25 00:03:59;;;;;;;415.30;125.97;;;;;;;-0.35;81.46;99438.31;343758;28;1540;-70
2021/12/25 00:04:09;;;;;;;416.60;126.03;;;;;;;-0.35;81.93;99437.47;342562;28;936;-70
2021/12/25 00:04:20;;;;;;;419.83;127.20;;;;;;;-0.35;81.78;99448.59;342564;28;893;-70
2021/12/25 00:04:30;;;;;;;417.10;127.85;;;;;;;-0.35;81.86;99443.44;343276;28;1705;-70
2021/12/25 00:04:41;;;;;;;413.93;127.73;;;;;;;-0.36;81.73;99440.88;341265;29;1007;-70
2021/12/25 00:04:51;;;;;;;411.63;127.47;;;;;;;-0.36;82.01;99441.75;342547;28;1184;-70
2021/12/25 00:05:02;;;;;;;414.63;128.27;;;;;;;-0.37;81.69;99434.88;342541;28;1045;-70
2021/12/25 00:05:14;;;;;;;416.40;127.57;;;;;;;-0.37;82.22;99434.88;343815;28;1226;-70
2021/12/25 00:05:24;;;;;;;417.42;128.13;;;;;;;-0.38;81.88;99440.88;342547;28;845;-70
2021/12/25 00:05:34;;;;;;;415.58;127.47;;;;;;;-0.38;81.72;99433.16;342604;28;1210;-70
2021/12/25 00:05:47;;;;;;;416.03;129.23;;;;;;;-0.38;81.70;99440.03;339891;29;919;-70
2021/12/25 00:05:58;;;;;;;414.92;129.32;;;;;;;-0.38;82.21;99440.03;338536;29;2078;-70
2021/12/25 00:06:09;;;;;;;414.70;128.93;;;;;;;-0.39;82.17;99438.31;341089;29;1619;-70
2021/12/25 00:06:19;;;;;;;414.45;128.48;;;;;;;-0.40;82.20;99431.44;342483;28;1032;-70
2021/12/25 00:06:29;;;;;;;411.87;128.23;;;;;;;-0.41;82.06;99438.31;343911;28;955;-70
2021/12/25 00:06:40;;;;;;;413.52;128.27;;;;;;;-0.41;81.87;99440.88;342544;28;972;-70
2021/12/25 00:06:50;;;;;;;413.10;127.30;;;;;;;-0.41;82.58;99448.59;341149;29;844;-70
2021/12/25 00:07:01;;;;;;;417.92;127.70;;;;;;;-0.42;82.30;99446.88;341140;29;1216;-70
2021/12/25 00:07:11;;;;;;;415.55;126.40;;;;;;;-0.43;82.24;99445.16;341597;28;1277;-70
2021/12/25 00:07:23;;;;;;;416.77;127.30;;;;;;;-0.43;82.21;99447.72;340857;29;1827;-70
2021/12/25 00:07:34;;;;;;;413.95;127.32;;;;;;;-0.44;82.45;99440.06;339987;29;2266;-70
2021/12/25 00:07:44;;;;;;;412.75;126.65;;;;;;;-0.42;82.54;99446.88;338239;29;1812;-70
2021/12/25 00:07:54;;;;;;;413.47;124.67;;;;;;;-0.40;82.07;99445.16;343101;28;2036;-70
2021/12/25 00:08:05;;;;;;;413.50;124.90;;;;;;;-0.39;82.42;99446.88;343771;28;971;-70
2021/12/25 00:08:15;;;;;;;414.85;125.22;;;;;;;-0.40;82.77;99445.16;343671;28;1307;-70
2021/12/25 00:08:27;;;;;;;411.17;124.70;;;;;;;-0.39;82.21;99444.31;341257;29;945;-70
2021/12/25 00:08:37;;;;;;;415.10;125.20;;;;;;;-0.40;82.33;99440.03;339948;29;909;-70
2021/12/25 00:08:47;;;;;;;414.10;125.87;;;;;;;-0.40;82.85;99434.88;338312;29;1276;-70
2021/12/25 00:08:58;;;;;;;415.85;125.90;;;;;;;-0.37;82.48;99434.03;341038;28;1448;-70
2021/12/25 00:09:08;;;;;;;413.93;126.17;;;;;;;-0.37;82.53;99434.88;343514;28;1405;-70
2021/12/25 00:09:19;;;;;;;415.70;126.40;;;;;;;-0.36;82.67;99431.47;343825;28;839;-70
2021/12/25 00:09:29;;;;;;;416.97;127.90;;;;;;;-0.39;82.20;99434.03;340967;29;1340;-70
2021/12/25 00:09:39;;;;;;;417.75;128.85;;;;;;;-0.38;82.70;99438.31;341209;29;984;-70
2021/12/25 00:09:50;;;;;;;415.90;129.57;;;;;;;-0.41;82.24;99438.31;341183;29;846;-70
2021/12/25 00:10:00;;;;;;;414.20;128.02;;;;;;;-0.43;82.27;99434.88;342383;28;1372;-70
2021/12/25 00:10:11;;;;;;;416.53;128.00;;;;;;;-0.47;82.41;99433.19;341235;29;966;-70
2021/12/25 00:10:21;;;;;;;418.17;128.75;;;;;;;-0.48;82.72;99435.75;339777;29;1203;-70
2021/12/25 00:10:32;;;;;;;420.17;130.10;;;;;;;-0.46;82.52;99439.19;339815;29;944;-70
2021/12/25 00:10:42;;;;;;;417.42;130.23;;;;;;;-0.46;82.65;99440.06;341075;28;1303;-70
2021/12/25 00:10:53;;;;;;;419.17;130.13;;;;;;;-0.45;82.40;99441.75;340208;29;1933;-70
2021/12/25 00:11:08;;;;;;;419.27;130.85;;;;;;;-0.45;82.37;99446.91;339954;29;1837;-70
2021/12/25 00:11:18;;;;;;;418.13;127.10;;;;;;;-0.45;82.13;99436.63;342451;28;1833;-70
2021/12/25 00:11:29;;;;;;;417.60;125.22;;;;;;;-0.43;82.71;99444.31;341018;29;1753;-70
2021/12/25 00:11:39;;;;;;;416.80;126.53;;;;;;;-0.44;82.58;99443.47;339945;29;986;-70
2021/12/25 00:11:49;;;;;;;418.30;129.40;;;;;;;-0.42;82.80;99438.31;339906;29;876;-70
2021/12/25 00:12:00;;;;;;;416.57;129.10;;;;;;;-0.42;82.29;99431.44;339993;28;2135;-70
2021/12/25 00:12:10;;;;;;;416.42;128.07;;;;;;;-0.42;82.40;99428.88;341125;28;1355;-70
2021/12/25 00:12:21;;;;;;;418.03;128.13;;;;;;;-0.41;82.20;99428.03;342385;28;1153;-70
2021/12/25 00:12:32;;;;;;;418.02;128.05;;;;;;;-0.42;82.33;99428.88;342457;28;1376;-70
2021/12/25 00:12:42;;;;;;;419.13;127.93;;;;;;;-0.42;82.20;99421.16;343324;28;2712;-70
2021/12/25 00:12:54;;;;;;;415.10;125.80;;;;;;;-0.45;82.60;99421.19;342323;28;1519;-70
2021/12/25 00:13:04;;;;;;;418.05;127.40;;;;;;;-0.55;82.77;99427.19;341044;28;1285;-70
2021/12/25 00:13:15;;;;;;;416.73;126.63;;;;;;;-0.56;82.77;99428.03;339816;29;1007;-70
2021/12/25 00:13:25;;;;;;;416.45;126.07;;;;;;;-0.56;82.62;99425.47;341093;28;874;-70
2021/12/25 00:13:37;;;;;;;413.10;125.67;;;;;;;-0.57;83.63;99426.34;341094;29;1111;-70
2021/12/25 00:13:47;;;;;;;416.27;127.05;;;;;;;-0.56;83.68;99422.06;342373;28;1327;-70
2021/12/25 00:13:57;;;;;;;418.15;127.22;;;;;;;-0.56;82.97;99428.03;341071;28;1422;-70
2021/12/25 00:14:11;;;;;;;419.43;127.43;;;;;;;-0.57;83.79;99421.19;339753;29;937;-70
2021/12/25 00:14:22;;;;;;;417.98;127.53;;;;;;;-0.56;83.33;99422.06;341090;29;951;-70
2021/12/25 00:14:32;;;;;;;420.15;128.50;;;;;;;-0.53;83.20;99428.06;339719;29;1995;-70
2021/12/25 00:14:43;;;;;;;422.37;129.13;;;;;;;-0.51;83.93;99430.63;340951;29;1228;-70
2021/12/25 00:14:54;;;;;;;424.27;131.53;;;;;;;-0.50;83.43;99428.06;342517;28;881;-70
2021/12/25 00:15:05;;;;;;;421.13;131.48;;;;;;;-0.48;82.91;99426.34;341170;29;966;-69
2021/12/25 00:15:15;;;;;;;418.23;131.50;;;;;;;-0.48;83.12;99418.63;341026;28;1254;-69
2021/12/25 00:15:26;;;;;;;417.80;130.95;;;;;;;-0.46;82.83;99429.78;341175;29;936;-69
2021/12/25 00:15:36;;;;;;;417.53;130.43;;;;;;;-0.44;83.75;99425.47;337801;29;1935;-69
2021/12/25 00:15:47;;;;;;;418.08;129.55;;;;;;;-0.45;83.03;99423.78;338904;29;2129;-69
2021/12/25 00:15:58;;;;;;;420.20;129.65;;;;;;;-0.44;83.19;99416.91;342585;28;945;-69
2021/12/25 00:16:08;;;;;;;420.08;128.93;;;;;;;-0.42;83.17;99423.75;343162;28;1368;-69
2021/12/25 00:16:18;;;;;;;421.93;130.27;;;;;;;-0.42;82.94;99418.59;343654;28;2028;-69
2021/12/25 00:16:29;;;;;;;421.37;130.87;;;;;;;-0.46;83.04;99419.50;341132;29;911;-70
2021/12/25 00:16:39;;;;;;;421.00;132.10;;;;;;;-0.47;83.70;99422.91;341158;29;890;-70
2021/12/25 00:16:50;;;;;;;418.98;130.73;;;;;;;-0.47;83.52;99425.47;340987;29;1328;-70
2021/12/25 00:17:00;;;;;;;419.37;130.17;;;;;;;-0.47;83.28;99420.34;341234;29;878;-70
2021/12/25 00:17:11;;;;;;;419.23;128.77;;;;;;;-0.48;82.80;99417.78;342545;28;1073;-70
2021/12/25 00:17:21;;;;;;;418.03;128.70;;;;;;;-0.48;83.37;99418.63;342299;28;2061;-70
2021/12/25 00:17:32;;;;;;;420.67;129.80;;;;;;;-0.49;82.94;99414.34;340794;29;2013;-70
2021/12/25 00:17:43;;;;;;;424.75;132.18;;;;;;;-0.47;83.65;99422.91;339648;29;1646;-70
2021/12/25 00:17:53;;;;;;;426.17;132.55;;;;;;;-0.47;83.89;99422.91;342376;28;1355;-70
2021/12/25 00:18:04;;;;;;;424.43;132.60;;;;;;;-0.45;83.62;99421.19;341100;28;1385;-70
2021/12/25 00:18:15;;;;;;;421.30;128.93;;;;;;;-0.42;83.80;99430.59;341192;29;963;-70
2021/12/25 00:18:25;;;;;;;419.47;128.10;;;;;;;-0.41;83.51;99420.31;342478;28;1148;-70
2021/12/25 00:18:35;;;;;;;421.03;128.53;;;;;;;-0.38;83.17;99419.47;341219;29;906;-70
2021/12/25 00:18:46;;;;;;;420.43;129.33;;;;;;;-0.38;83.49;99422.88;342041;28;1981;-69
2021/12/25 00:18:56;;;;;;;418.73;127.93;;;;;;;-0.37;82.78;99424.59;342436;28;1304;-69
2021/12/25 00:19:07;;;;;;;416.75;127.80;;;;;;;-0.35;83.25;99422.88;343830;28;1208;-69
2021/12/25 00:19:17;;;;;;;417.30;129.47;;;;;;;-0.31;83.74;99417.75;342432;28;1330;-69
2021/12/25 00:19:28;;;;;;;419.80;131.60;;;;;;;-0.31;82.74;99423.75;339709;29;1867;-69
2021/12/25 00:19:38;;;;;;;420.30;132.20;;;;;;;-0.32;82.95;99422.03;338678;29;787;-69
2021/12/25 00:19:49;;;;;;;419.00;131.00;;;;;;;-0.29;82.44;99427.19;341203;29;1089;-69
2021/12/25 00:19:59;;;;;;;416.20;128.87;;;;;;;-0.28;83.38;99417.75;341141;29;803;-69
2021/12/25 00:20:10;;;;;;;414.60;126.30;;;;;;;-0.26;82.50;99421.19;342471;28;1387;-69
2021/12/25 00:20:20;;;;;;;413.33;125.17;;;;;;;-0.25;82.65;99420.31;342310;28;2081;-69
2021/12/25 00:20:30;;;;;;;413.35;124.35;;;;;;;-0.26;82.94;99416.88;338489;29;1213;-69
2021/12/25 00:20:41;;;;;;;413.30;125.33;;;;;;;-0.24;82.82;99416.88;339973;29;1061;-70
2021/12/25 00:20:51;;;;;;;414.80;126.60;;;;;;;-0.26;82.41;99416.03;341106;29;934;-70
2021/12/25 00:21:02;;;;;;;415.90;127.40;;;;;;;-0.23;82.96;99421.19;341022;29;1279;-70
2021/12/25 00:21:12;;;;;;;416.90;126.65;;;;;;;-0.23;82.32;99418.59;341097;29;1343;-70
2021/12/25 00:21:23;;;;;;;413.67;126.30;;;;;;;-0.23;83.02;99421.19;341209;29;1087;-70
2021/12/25 00:21:33;;;;;;;412.93;127.17;;;;;;;-0.25;82.50;99416.03;341264;28;5411;-70
2021/12/25 00:21:44;;;;;;;415.67;129.65;;;;;;;-0.25;82.87;99418.59;342442;28;1241;-70
2021/12/25 00:21:54;;;;;;;418.70;130.23;;;;;;;-0.25;82.48;99417.75;341081;28;1393;-70
2021/12/25 00:22:05;;;;;;;421.13;130.87;;;;;;;-0.26;83.15;99421.19;342427;28;1271;-70
2021/12/25 00:22:15;;;;;;;422.60;131.63;;;;;;;-0.26;82.51;99416.03;341481;28;2042;-70
2021/12/25 00:22:26;;;;;;;424.20;131.87;;;;;;;-0.26;82.43;99421.19;340982;29;1292;-70
2021/12/25 00:22:36;;;;;;;423.55;132.30;;;;;;;-0.27;82.64;99419.47;339922;29;871;-70
2021/12/25 00:22:46;;;;;;;424.17;132.63;;;;;;;-0.29;82.88;99421.19;339661;29;1571;-70
2021/12/25 00:22:59;;;;;;;419.37;130.47;;;;;;;-0.30;82.64;99424.59;341117;28;1256;-70
2021/12/25 00:23:10;;;;;;;417.08;128.13;;;;;;;-0.31;82.88;99418.59;342373;28;970;-70
2021/12/25 00:23:21;;;;;;;417.65;127.00;;;;;;;-0.31;82.86;99418.59;339937;29;927;-70
2021/12/25 00:23:32;;;;;;;419.33;127.20;;;;;;;-0.29;82.57;99421.19;341072;28;1308;-70
2021/12/25 00:23:42;;;;;;;420.77;127.50;;;;;;;-0.29;83.17;99422.03;342357;28;1989;-70
2021/12/25 00:23:53;;;;;;;421.60;126.68;;;;;;;-0.29;82.86;99421.19;342665;28;1139;-70
2021/12/25 00:24:03;;;;;;;423.37;127.47;;;;;;;-0.30;82.35;99419.47;343477;28;2137;-70
2021/12/25 00:24:14;;;;;;;419.98;127.13;;;;;;;-0.31;82.55;99420.31;342419;28;2114;-70
2021/12/25 00:24:24;;;;;;;415.00;126.93;;;;;;;-0.35;82.26;99420.31;339688;29;1707;-70
2021/12/25 00:24:35;;;;;;;415.98;128.02;;;;;;;-0.37;82.50;99429.75;341037;29;1210;-70
2021/12/25 00:24:46;;;;;;;420.67;129.85;;;;;;;-0.37;82.87;99424.59;341071;29;961;-70
2021/12/25 00:24:56;;;;;;;422.93;129.63;;;;;;;-0.37;82.62;99419.47;341163;29;1486;-70
2021/12/25 00:25:07;;;;;;;420.07;127.93;;;;;;;-0.35;82.40;99432.31;342590;28;920;-70
2021/12/25 00:25:19;;;;;;;414.85;125.93;;;;;;;-0.37;82.52;99424.59;342495;28;969;-70
2021/12/25 00:25:33;;;;;;;415.70;125.82;;;;;;;-0.38;82.53;99428.03;341249;29;929;-70
2021/12/25 00:25:49;;;;;;;418.50;125.38;;;;;;;-0.37;82.37;99424.59;342490;28;1070;-70
2021/12/25 00:26:11;;;;;;;417.77;126.18;;;;;;;-0.38;82.31;99424.59;341032;28;1073;-70
2021/12/25 00:26:41;;;;;;;413.55;126.03;;;;;;;-0.42;81.80;99421.16;339863;29;1335;-70
2021/12/25 00:27:08;;;;;;;414.35;127.40;;;;;;;-0.42;82.48;99425.44;342289;28;992;-70
2021/12/25 00:28:01;;;;;;;417.05;128.32;;;;;;;-0.42;82.91;99421.16;342534;28;1301;-70
2021/12/25 00:29:06;;;;;;;415.42;126.22;;;;;;;-0.39;82.50;99426.31;341000;29;871;-70
2021/12/25 00:29:58;;;;;;;416.58;125.68;;;;;;;-0.39;81.99;99425.47;342586;28;904;-70
2021/12/25 00:30:36;;;;;;;417.17;126.93;;;;;;;-0.39;81.88;99421.16;339850;29;976;-70
2021/12/25 00:30:57;;;;;;;412.80;126.35;;;;;;;-0.40;81.78;99422.03;339678;29;1759;-70
2021/12/25 00:31:30;;;;;;;417.52;127.70;;;;;;;-0.42;82.52;99421.16;342518;28;821;-70
2021/12/25 00:31:53;;;;;;;421.30;128.45;;;;;;;-0.41;82.81;99417.75;341173;29;896;-70
2021/12/25 00:33:02;;;;;;;425.73;132.48;;;;;;;-0.36;82.22;99416.03;342366;28;949;-70
2021/12/25 00:33:54;;;;;;;423.42;130.75;;;;;;;-0.36;82.93;99407.47;342495;28;928;-70
2021/12/25 00:33:57;;;;;;;422.82;129.38;;;;;;;-0.44;82.58;99402.34;338538;29;1647;-70
2021/12/25 00:34:09;;;;;;;422.73;128.93;;;;;;;-0.48;82.81;99410.91;339791;29;1099;-70
2021/12/25 00:34:23;;;;;;;424.33;131.93;;;;;;;-0.50;83.02;99412.63;339805;29;1127;-70
2021/12/25 00:34:33;;;;;;;427.23;134.45;;;;;;;-0.51;83.12;99400.63;339835;29;889;-70
2021/12/25 00:34:44;;;;;;;430.30;135.27;;;;;;;-0.49;83.18;99414.34;342414;28;882;-70
2021/12/25 00:34:54;;;;;;;429.93;135.87;;;;;;;-0.50;83.23;99407.50;342359;28;2136;-70
2021/12/25 00:35:05;;;;;;;428.75;135.00;;;;;;;-0.47;82.72;99407.50;340951;28;1608;-70
2021/12/25 00:35:15;;;;;;;425.17;134.60;;;;;;;-0.44;83.25;99407.50;341152;29;1085;-70
2021/12/25 00:35:27;;;;;;;424.97;133.00;;;;;;;-0.42;83.29;99405.75;342383;28;1238;-70
2021/12/25 00:35:37;;;;;;;421.80;133.65;;;;;;;-0.41;83.53;99398.91;342528;28;942;-70
2021/12/25 00:35:48;;;;;;;422.47;134.33;;;;;;;-0.38;82.95;99407.47;341055;28;1349;-70
2021/12/25 00:35:58;;;;;;;423.83;136.57;;;;;;;-0.38;83.01;99407.47;341098;29;885;-70
2021/12/25 00:36:13;;;;;;;430.43;136.77;;;;;;;-0.35;83.41;99411.75;338488;29;1712;-70
2021/12/25 00:36:23;;;;;;;428.05;133.82;;;;;;;-0.35;82.28;99412.59;338540;29;910;-70
2021/12/25 00:36:33;;;;;;;423.30;133.03;;;;;;;-0.36;83.00;99402.31;339775;29;1388;-70
2021/12/25 00:36:44;;;;;;;424.60;132.93;;;;;;;-0.36;82.53;99404.88;342951;28;2134;-70
2021/12/25 00:36:54;;;;;;;427.57;133.90;;;;;;;-0.37;82.80;99409.19;343756;28;1314;-70
2021/12/25 00:37:05;;;;;;;429.27;133.50;;;;;;;-0.36;83.21;99415.19;342578;28;841;-70
2021/12/25 00:37:16;;;;;;;427.15;134.15;;;;;;;-0.36;82.68;99405.75;342102;28;1901;-70
2021/12/25 00:37:26;;;;;;;422.10;132.63;;;;;;;-0.37;82.44;99404.03;341075;29;904;-70
2021/12/25 00:37:37;;;;;;;420.05;131.60;;;;;;;-0.36;82.42;99404.88;342390;28;1373;-70
2021/12/25 00:37:47;;;;;;;422.57;130.77;;;;;;;-0.38;82.68;99407.47;341135;28;1528;-70
2021/12/25 00:37:57;;;;;;;426.40;130.90;;;;;;;-0.40;82.33;99404.03;339832;29;994;-70
2021/12/25 00:38:08;;;;;;;426.47;132.30;;;;;;;-0.38;82.67;99411.75;337151;29;924;-70
2021/12/25 00:38:18;;;;;;;423.35;133.38;;;;;;;-0.37;82.42;99408.31;337161;29;991;-70
2021/12/25 00:38:29;;;;;;;424.23;133.43;;;;;;;-0.37;82.59;99409.19;341244;29;848;-70
2021/12/25 00:38:42;;;;;;;424.23;133.20;;;;;;;-0.37;82.54;99409.19;342969;28;1588;-70
2021/12/25 00:38:52;;;;;;;427.33;135.07;;;;;;;-0.36;82.40;99413.47;340976;28;1446;-70
2021/12/25 00:39:03;;;;;;;427.67;135.80;;;;;;;-0.37;83.00;99414.31;341171;29;1062;-70
2021/12/25 00:39:13;;;;;;;426.30;134.03;;;;;;;-0.36;82.23;99410.88;342467;28;1281;-70
2021/12/25 00:39:25;;;;;;;424.00;131.82;;;;;;;-0.32;83.03;99410.88;344387;28;1704;-70
2021/12/25 00:39:36;;;;;;;421.73;131.05;;;;;;;-0.32;82.32;99411.75;342339;28;2103;-70
2021/12/25 00:39:46;;;;;;;424.45;131.07;;;;;;;-0.31;82.91;99417.75;343742;28;1244;-70
2021/12/25 00:39:57;;;;;;;425.30;131.50;;;;;;;-0.31;82.60;99412.59;341204;29;853;-70
2021/12/25 00:40:08;;;;;;;425.58;131.73;;;;;;;-0.29;82.52;99418.59;342450;28;1327;-70
2021/12/25 00:40:18;;;;;;;425.60;133.57;;;;;;;-0.29;82.83;99410.88;338471;29;1037;-70
2021/12/25 00:40:29;;;;;;;425.30;134.48;;;;;;;-0.30;82.92;99419.47;341140;29;971;-70
2021/12/25 00:40:39;;;;;;;424.53;135.40;;;;;;;-0.30;82.76;99416.88;343861;28;918;-70
2021/12/25 00:40:50;;;;;;;426.38;136.18;;;;;;;-0.28;83.00;99422.88;340841;29;1603;-70
2021/12/25 00:41:00;;;;;;;427.83;135.17;;;;;;;-0.28;83.04;99423.75;342289;28;1962;-70
2021/12/25 00:41:11;;;;;;;430.38;135.02;;;;;;;-0.26;82.82;99416.03;340797;29;1847;-70
2021/12/25 00:41:22;;;;;;;429.60;133.88;;;;;;;-0.25;82.69;99418.59;341144;28;1374;-70
2021/12/25 00:41:33;;;;;;;428.40;135.50;;;;;;;-0.24;83.05;99420.31;339330;29;2161;-70
2021/12/25 00:41:43;;;;;;;429.80;136.60;;;;;;;-0.23;82.18;99413.47;341580;28;1948;-70
2021/12/25 00:41:54;;;;;;;429.07;137.03;;;;;;;-0.23;82.73;99410.88;342493;28;971;-70
2021/12/25 00:42:05;;;;;;;428.80;137.40;;;;;;;-0.22;82.14;99421.19;342567;28;1561;-70
2021/12/25 00:42:16;;;;;;;427.00;137.10;;;;;;;-0.23;82.22;99413.47;343347;28;2075;-70
2021/12/25 00:42:27;;;;;;;427.70;137.10;;;;;;;-0.22;82.23;99420.31;342347;28;1293;-70
2021/12/25 00:42:37;;;;;;;429.92;137.32;;;;;;;-0.22;82.02;99417.75;341121;29;869;-70
2021/12/25 00:42:48;;;;;;;431.90;137.87;;;;;;;-0.22;82.33;99417.75;339703;29;1407;-70
2021/12/25 00:42:58;;;;;;;435.73;139.57;;;;;;;-0.21;81.98;99415.19;343054;28;1268;-70
2021/12/25 00:43:09;;;;;;;435.33;140.18;;;;;;;-0.20;82.36;99418.59;341000;28;1432;-70
2021/12/25 00:43:19;;;;;;;434.53;139.30;;;;;;;-0.20;81.90;99416.88;344253;28;2053;-70
2021/12/25 00:43:29;;;;;;;432.63;137.97;;;;;;;-0.21;82.01;99410.03;345018;28;2029;-70
2021/12/25 00:43:40;;;;;;;428.30;136.53;;;;;;;-0.19;82.15;99417.75;343839;28;1352;-70
2021/12/25 00:43:51;;;;;;;430.65;137.00;;;;;;;-0.20;82.33;99416.88;340892;29;1930;-70
2021/12/25 00:44:01;;;;;;;429.57;136.73;;;;;;;-0.20;81.93;99416.03;342555;28;994;-70
2021/12/25 00:44:11;;;;;;;430.92;137.52;;;;;;;-0.24;82.34;99414.31;339867;29;890;-70
2021/12/25 00:44:22;;;;;;;430.43;139.13;;;;;;;-0.24;82.40;99414.31;341042;29;1904;-70
2021/12/25 00:44:33;;;;;;;431.88;139.48;;;;;;;-0.26;82.54;99410.88;341157;29;942;-70
2021/12/25 00:44:43;;;;;;;434.70;140.93;;;;;;;-0.27;82.45;99407.47;343738;28;1375;-70
2021/12/25 00:44:54;;;;;;;434.17;141.13;;;;;;;-0.27;82.06;99414.31;342577;28;872;-70
2021/12/25 00:45:05;;;;;;;434.23;140.33;;;;;;;-0.29;82.77;99410.88;343632;28;956;-70
2021/12/25 00:45:15;;;;;;;432.40;138.52;;;;;;;-0.30;83.02;99411.75;342314;28;2206;-70
2021/12/25 00:45:25;;;;;;;431.00;137.53;;;;;;;-0.30;82.14;99410.03;341027;28;1562;-70
2021/12/25 00:45:36;;;;;;;431.40;138.70;;;;;;;-0.31;82.30;99408.31;342412;28;943;-70
2021/12/25 00:45:46;;;;;;;435.67;139.60;;;;;;;-0.31;82.95;99410.03;343739;28;1301;-70
2021/12/25 00:45:57;;;;;;;432.83;138.98;;;;;;;-0.31;82.38;99410.88;343760;28;1023;-70
2021/12/25 00:46:07;;;;;;;426.30;137.30;;;;;;;-0.30;82.55;99414.31;343758;28;1864;-70
2021/12/25 00:46:17;;;;;;;421.20;134.77;;;;;;;-0.28;82.15;99412.59;340550;29;2274;-70
2021/12/25 00:46:28;;;;;;;424.17;133.90;;;;;;;-0.30;82.09;99411.75;340999;28;1706;-70
2021/12/25 00:46:38;;;;;;;424.70;133.20;;;;;;;-0.31;82.43;99407.47;339866;29;893;-70
2021/12/25 00:46:49;;;;;;;427.37;134.23;;;;;;;-0.30;82.24;99414.31;339724;29;1255;-70
2021/12/25 00:46:59;;;;;;;427.33;133.82;;;;;;;-0.31;82.33;99417.75;342502;28;1991;-70
2021/12/25 00:47:09;;;;;;;429.23;133.70;;;;;;;-0.34;82.36;99414.31;341141;29;1216;-70
2021/12/25 00:47:20;;;;;;;427.13;132.38;;;;;;;-0.33;82.71;99410.03;341653;28;1035;-70
2021/12/25 00:47:30;;;;;;;424.90;132.00;;;;;;;-0.35;82.31;99415.19;342376;28;1292;-70
2021/12/25 00:47:41;;;;;;;424.30;131.63;;;;;;;-0.35;82.06;99417.75;342523;28;1686;-70
2021/12/25 00:47:51;;;;;;;424.63;131.80;;;;;;;-0.35;82.70;99420.31;339803;29;873;-70
2021/12/25 00:48:02;;;;;;;428.08;133.50;;;;;;;-0.35;82.02;99425.47;342482;28;928;-70
2021/12/25 00:48:12;;;;;;;429.70;133.93;;;;;;;-0.36;82.51;99420.31;342514;28;1713;-70
2021/12/25 00:48:22;;;;;;;429.48;133.02;;;;;;;-0.37;81.89;99424.59;341948;28;1150;-70
2021/12/25 00:48:33;;;;;;;425.83;131.40;;;;;;;-0.36;81.77;99426.31;341197;29;861;-70
2021/12/25 00:48:43;;;;;;;422.80;130.55;;;;;;;-0.38;82.34;99422.03;339706;29;1186;-70
2021/12/25 00:48:53;;;;;;;424.70;131.57;;;;;;;-0.38;82.94;99422.88;339738;29;1184;-70
2021/12/25 00:49:04;;;;;;;423.37;132.20;;;;;;;-0.38;82.38;99425.47;342592;28;1626;-70
2021/12/25 00:49:14;;;;;;;424.55;131.98;;;;;;;-0.36;82.96;99421.19;341437;28;2154;-70
2021/12/25 00:49:25;;;;;;;424.43;131.83;;;;;;;-0.35;82.34;99425.47;342387;28;1963;-70
2021/12/25 00:49:35;;;;;;;427.83;133.23;;;;;;;-0.35;82.14;99424.59;341090;29;1263;-70
2021/12/25 00:49:46;;;;;;;428.52;134.93;;;;;;;-0.34;82.77;99428.88;342404;28;1315;-70
2021/12/25 00:49:56;;;;;;;424.83;133.80;;;;;;;-0.34;82.12;99424.59;341226;29;956;-70
2021/12/25 00:50:07;;;;;;;421.70;132.00;;;;;;;-0.32;82.45;99426.31;345135;28;894;-70
2021/12/25 00:50:17;;;;;;;419.85;131.88;;;;;;;-0.32;82.55;99416.03;343731;28;1230;-70
2021/12/25 00:50:28;;;;;;;423.70;133.70;;;;;;;-0.32;82.05;99431.47;343802;28;857;-70
2021/12/25 00:50:38;;;;;;;428.05;134.88;;;;;;;-0.33;82.22;99420.31;342459;28;1322;-70
2021/12/25 00:50:49;;;;;;;430.53;135.53;;;;;;;-0.34;82.57;99418.59;338276;28;1293;-70
2021/12/25 00:50:59;;;;;;;430.43;135.50;;;;;;;-0.32;82.40;99427.19;339665;29;1912;-70
2021/12/25 00:51:09;;;;;;;427.43;134.47;;;;;;;-0.32;82.04;99421.19;339200;29;2194;-70
2021/12/25 00:51:20;;;;;;;426.43;133.53;;;;;;;-0.32;82.12;99416.88;339753;29;1694;-70
2021/12/25 00:51:30;;;;;;;424.40;134.10;;;;;;;-0.32;82.88;99422.03;338126;29;1854;-70
2021/12/25 00:51:40;;;;;;;425.70;134.43;;;;;;;-0.32;82.01;99422.03;338439;29;1777;-70
2021/12/25 00:51:51;;;;;;;426.23;135.05;;;;;;;-0.34;82.38;99418.59;338449;29;1339;-70
2021/12/25 00:52:01;;;;;;;427.57;132.97;;;;;;;-0.35;82.60;99422.88;341161;29;1102;-70
2021/12/25 00:52:13;;;;;;;425.67;133.05;;;;;;;-0.35;82.89;99425.47;341103;28;898;-70
2021/12/25 00:52:23;;;;;;;423.45;131.82;;;;;;;-0.36;83.05;99420.31;341094;29;1014;-70
2021/12/25 00:52:34;;;;;;;419.80;132.07;;;;;;;-0.37;82.47;99424.59;341039;28;1404;-69
2021/12/25 00:52:44;;;;;;;422.40;133.02;;;;;;;-0.37;82.69;99418.59;339624;29;1953;-69
2021/12/25 00:52:55;;;;;;;421.00;131.80;;;;;;;-0.37;82.32;99423.75;342543;28;843;-69
2021/12/25 00:53:05;;;;;;;422.47;131.07;;;;;;;-0.38;82.78;99424.59;343669;28;1193;-69
2021/12/25 00:53:15;;;;;;;423.57;130.23;;;;;;;-0.40;82.47;99424.59;341089;29;1100;-69
2021/12/25 00:53:26;;;;;;;425.27;131.73;;;;;;;-0.40;83.13;99422.03;341479;29;1022;-69
2021/12/25 00:53:36;;;;;;;427.45;132.73;;;;;;;-0.42;82.48;99416.03;341386;29;869;-69
2021/12/25 00:53:47;;;;;;;422.63;131.30;;;;;;;-0.42;83.41;99421.16;340082;29;1371;-69
2021/12/25 00:53:57;;;;;;;420.60;130.60;;;;;;;-0.43;83.11;99414.31;341370;29;1246;-69
2021/12/25 00:54:09;;;;;;;417.60;129.30;;;;;;;-0.43;82.90;99414.31;342640;28;1233;-69
2021/12/25 00:54:19;;;;;;;422.00;129.90;;;;;;;-0.43;83.07;99424.59;341213;29;1277;-69
2021/12/25 00:54:29;;;;;;;425.42;131.95;;;;;;;-0.44;83.08;99422.06;344043;28;1208;-69
2021/12/25 00:54:40;;;;;;;425.73;132.47;;;;;;;-0.45;83.52;99421.19;342753;28;1254;-69
2021/12/25 00:54:51;;;;;;;424.83;132.85;;;;;;;-0.44;82.69;99416.91;341285;29;995;-69
2021/12/25 00:55:04;;;;;;;423.97;131.87;;;;;;;-0.44;83.24;99422.91;341367;28;1354;-69
2021/12/25 00:55:14;;;;;;;426.10;132.25;;;;;;;-0.44;83.21;99416.91;342675;28;1583;-69